Time;durP1;ratioP1;P1;durP2;ratioP2;P2;SDS_P1;SDS_P2;PMS_P1;PMS_P2;Temp;Humidity;BMP_temperature;BMP_pressure;BME280_temperature;BME280_humidity;BME280_pressure;Samples;Min_cycle;Max_cycle;Signal;HPM_P1;HPM_P2
2023/03/13 00:01:25;;;;;;;;;5.00;5.00;;;;;;;;4973452;28;9052;-85
2023/03/13 00:03:54;;;;;;;;;5.00;3.67;;;;;;;;4973185;28;9099;-85
2023/03/13 00:06:26;;;;;;;;;3.00;3.00;;;;;;;;4959508;28;9067;-85
2023/03/13 00:08:54;;;;;;;;;5.00;5.00;;;;;;;;4971032;28;8981;-84
2023/03/13 00:11:22;;;;;;;;;3.50;3.50;;;;;;;;4969554;28;9089;-85
2023/03/13 00:13:49;;;;;;;;;4.50;3.25;;;;;;;;4974386;28;8881;-84
2023/03/13 00:16:17;;;;;;;;;2.00;2.00;;;;;;;;4973851;28;8883;-85
2023/03/13 00:18:49;;;;;;;;;4.00;4.00;;;;;;;;4971179;28;8969;-84
2023/03/13 00:21:18;;;;;;;;;4.33;4.33;;;;;;;;4973945;28;9025;-83
2023/03/13 00:23:47;;;;;;;;;4.75;4.00;;;;;;;;4973193;28;8977;-83
2023/03/13 00:26:17;;;;;;;;;4.25;4.00;;;;;;;;4977938;28;8889;-84
2023/03/13 00:28:45;;;;;;;;;5.50;3.75;;;;;;;;4975161;28;9694;-83
2023/03/13 00:31:14;;;;;;;;;6.25;4.75;;;;;;;;4972493;28;8920;-83
2023/03/13 00:33:43;;;;;;;;;2.75;2.75;;;;;;;;4971601;28;8894;-84
2023/03/13 00:36:12;;;;;;;;;4.00;4.00;;;;;;;;4978327;28;8853;-83
2023/03/13 00:38:40;;;;;;;;;4.75;3.25;;;;;;;;4976237;28;9676;-84
2023/03/13 00:41:12;;;;;;;;;4.00;4.00;;;;;;;;4971603;28;8881;-84
2023/03/13 00:43:40;;;;;;;;;3.25;3.25;;;;;;;;4971834;28;8880;-84
2023/03/13 00:46:08;;;;;;;;;2.50;2.50;;;;;;;;4972752;28;8903;-84
2023/03/13 00:48:35;;;;;;;;;4.50;2.75;;;;;;;;4973587;28;8881;-85
2023/03/13 00:51:04;;;;;;;;;4.00;4.00;;;;;;;;4972230;28;8886;-84
2023/03/13 00:53:31;;;;;;;;;3.75;3.75;;;;;;;;4966770;28;8861;-84
2023/03/13 00:56:01;;;;;;;;;3.00;3.00;;;;;;;;4975574;28;8858;-84
2023/03/13 00:58:32;;;;;;;;;5.75;3.75;;;;;;;;4972472;28;9044;-83
2023/03/13 01:01:08;;;;;;;;;5.75;3.00;;;;;;;;4969171;28;8877;-84
2023/03/13 01:03:36;;;;;;;;;2.50;2.50;;;;;;;;4967597;28;8864;-83
2023/03/13 01:06:06;;;;;;;;;3.00;3.00;;;;;;;;4968374;28;9652;-83
2023/03/13 01:08:33;;;;;;;;;2.50;2.50;;;;;;;;4965459;28;8861;-84
2023/03/13 01:11:02;;;;;;;;;1.50;1.50;;;;;;;;4970442;28;8849;-83
2023/03/13 01:13:33;;;;;;;;;3.25;3.25;;;;;;;;4969818;28;8864;-85
2023/03/13 01:16:04;;;;;;;;;2.00;2.00;;;;;;;;4976572;28;8868;-83
2023/03/13 01:18:31;;;;;;;;;2.00;2.00;;;;;;;;4971774;28;8889;-84
2023/03/13 01:20:59;;;;;;;;;3.00;3.00;;;;;;;;4968999;28;8857;-85
2023/03/13 01:23:28;;;;;;;;;0.25;0.25;;;;;;;;4975581;28;8861;-83
2023/03/13 01:25:55;;;;;;;;;1.00;1.00;;;;;;;;4974181;28;8885;-82
2023/03/13 01:28:23;;;;;;;;;4.00;2.25;;;;;;;;4971754;28;8850;-83
2023/03/13 01:30:54;;;;;;;;;1.50;1.50;;;;;;;;4972993;28;8891;-83
2023/03/13 01:33:23;;;;;;;;;1.00;1.00;;;;;;;;4972897;28;8877;-83
2023/03/13 01:35:52;;;;;;;;;1.00;1.00;;;;;;;;4970107;28;8886;-83
2023/03/13 01:38:19;;;;;;;;;2.00;2.00;;;;;;;;4973527;28;8869;-83
2023/03/13 01:40:49;;;;;;;;;0.00;0.00;;;;;;;;4974967;28;9637;-83
2023/03/13 01:43:21;;;;;;;;;2.00;2.00;;;;;;;;4969803;28;8892;-84
2023/03/13 01:46:14;;;;;;;;;2.50;2.00;;;;;;;;4970065;28;8893;-86
2023/03/13 01:48:46;;;;;;;;;1.75;1.75;;;;;;;;4966923;28;8858;-87
2023/03/13 01:51:17;;;;;;;;;1.00;1.00;;;;;;;;4972281;28;9643;-83
2023/03/13 01:53:47;;;;;;;;;1.50;1.50;;;;;;;;4976295;28;8988;-83
2023/03/13 01:56:19;;;;;;;;;1.75;1.75;;;;;;;;4977805;28;8874;-84
2023/03/13 01:58:48;;;;;;;;;1.75;1.75;;;;;;;;4973264;28;8853;-84
2023/03/13 02:01:17;;;;;;;;;2.50;2.25;;;;;;;;4973383;28;8927;-84
2023/03/13 02:03:45;;;;;;;;;2.00;2.00;;;;;;;;4975962;28;8901;-84
2023/03/13 02:06:13;;;;;;;;;2.50;2.50;;;;;;;;4976642;28;8884;-84
2023/03/13 02:08:45;;;;;;;;;2.50;2.50;;;;;;;;4974749;28;8878;-84
2023/03/13 02:11:22;;;;;;;;;3.50;2.75;;;;;;;;4970958;28;8830;-85
2023/03/13 02:13:51;;;;;;;;;2.50;2.50;;;;;;;;4971512;28;8900;-85
2023/03/13 02:16:21;;;;;;;;;2.00;2.00;;;;;;;;4978377;28;8865;-85
2023/03/13 02:18:49;;;;;;;;;4.25;3.00;;;;;;;;4970754;28;8875;-85
2023/03/13 02:21:23;;;;;;;;;2.50;2.25;;;;;;;;4974331;28;8944;-85
2023/03/13 02:23:58;;;;;;;;;2.00;2.00;;;;;;;;4974548;28;8865;-85
2023/03/13 02:26:27;;;;;;;;;2.75;2.75;;;;;;;;4975961;28;8905;-85
2023/03/13 02:28:55;;;;;;;;;3.00;3.00;;;;;;;;4969038;28;8940;-85
2023/03/13 02:31:22;;;;;;;;;2.25;2.25;;;;;;;;4977529;28;8896;-85
2023/03/13 02:33:50;;;;;;;;;2.25;2.25;;;;;;;;4978310;28;8893;-84
2023/03/13 02:36:18;;;;;;;;;3.00;3.00;;;;;;;;4971925;28;8857;-84
2023/03/13 02:38:52;;;;;;;;;4.00;2.25;;;;;;;;4955822;28;8858;-85
2023/03/13 02:41:20;;;;;;;;;2.50;2.50;;;;;;;;4968734;28;8895;-83
2023/03/13 02:43:49;;;;;;;;;4.00;4.00;;;;;;;;4974363;28;8877;-84
2023/03/13 02:46:18;;;;;;;;;3.00;3.00;;;;;;;;4973517;28;8853;-83
2023/03/13 02:48:48;;;;;;;;;4.00;2.25;;;;;;;;4954024;28;8975;-85
2023/03/13 02:51:19;;;;;;;;;3.00;3.00;;;;;;;;4980532;28;8862;-84
2023/03/13 02:53:48;;;;;;;;;2.00;2.00;;;;;;;;4972751;28;8846;-85
2023/03/13 02:56:19;;;;;;;;;3.25;3.25;;;;;;;;4953005;28;8979;-85
2023/03/13 02:58:49;;;;;;;;;2.00;2.00;;;;;;;;4973566;28;8869;-85
2023/03/13 03:01:17;;;;;;;;;3.00;3.00;;;;;;;;4976736;28;8884;-86
2023/03/13 03:03:44;;;;;;;;;3.50;3.50;;;;;;;;4974105;28;8895;-85
2023/03/13 03:06:12;;;;;;;;;2.00;2.00;;;;;;;;4976612;28;9707;-84
2023/03/13 03:08:42;;;;;;;;;3.00;3.00;;;;;;;;4971664;28;8849;-85
2023/03/13 03:11:10;;;;;;;;;3.00;3.00;;;;;;;;4975328;28;8870;-85
2023/03/13 03:13:38;;;;;;;;;3.00;3.00;;;;;;;;4974010;28;8877;-86
2023/03/13 03:16:11;;;;;;;;;3.00;3.00;;;;;;;;4970977;28;8887;-84
2023/03/13 03:18:40;;;;;;;;;3.00;3.00;;;;;;;;4973483;28;8883;-83
2023/03/13 03:21:08;;;;;;;;;4.00;4.00;;;;;;;;4975307;28;8849;-83
2023/03/13 03:23:36;;;;;;;;;3.50;2.50;;;;;;;;4977544;28;8928;-84
2023/03/13 03:26:07;;;;;;;;;4.75;3.50;;;;;;;;4971288;28;8870;-84
2023/03/13 03:28:35;;;;;;;;;5.25;3.75;;;;;;;;4976573;28;8985;-84
2023/03/13 03:31:04;;;;;;;;;5.00;3.50;;;;;;;;4973157;28;8857;-85
2023/03/13 03:33:34;;;;;;;;;2.50;2.50;;;;;;;;4971894;28;8879;-84
2023/03/13 03:36:02;;;;;;;;;3.50;2.00;;;;;;;;4968817;28;9668;-83
2023/03/13 03:38:29;;;;;;;;;5.00;4.00;;;;;;;;4969278;28;8896;-84
2023/03/13 03:40:57;;;;;;;;;3.00;3.00;;;;;;;;4977983;28;9762;-84
2023/03/13 03:43:25;;;;;;;;;2.75;2.75;;;;;;;;4972586;28;8869;-84
2023/03/13 03:45:53;;;;;;;;;2.00;2.00;;;;;;;;4973705;28;8919;-84
2023/03/13 03:48:20;;;;;;;;;7.00;3.75;;;;;;;;4966112;28;8904;-85
2023/03/13 03:50:50;;;;;;;;;3.50;2.75;;;;;;;;4974659;28;8987;-84
2023/03/13 03:53:17;;;;;;;;;4.50;3.25;;;;;;;;4973381;28;8884;-84
2023/03/13 03:55:46;;;;;;;;;3.00;3.00;;;;;;;;4968676;28;8881;-85
2023/03/13 03:58:13;;;;;;;;;4.00;2.00;;;;;;;;4972039;28;8912;-85
2023/03/13 04:00:43;;;;;;;;;2.25;2.25;;;;;;;;4966477;28;8955;-85
2023/03/13 04:03:11;;;;;;;;;2.00;2.00;;;;;;;;4973434;28;8840;-84
2023/03/13 04:05:38;;;;;;;;;2.50;2.50;;;;;;;;4952825;28;8900;-84
2023/03/13 04:08:09;;;;;;;;;4.00;4.00;;;;;;;;4954641;28;8881;-84
2023/03/13 04:10:37;;;;;;;;;2.75;2.75;;;;;;;;4969345;28;8875;-85
2023/03/13 04:13:07;;;;;;;;;3.50;2.75;;;;;;;;4972019;28;9340;-85
2023/03/13 04:15:36;;;;;;;;;3.75;3.00;;;;;;;;4973337;28;8853;-83
2023/03/13 04:18:03;;;;;;;;;2.50;2.50;;;;;;;;4973773;28;8881;-86
2023/03/13 04:20:31;;;;;;;;;4.00;2.50;;;;;;;;4968979;28;8850;-85
2023/03/13 04:22:58;;;;;;;;;3.00;3.00;;;;;;;;4973296;28;8857;-84
2023/03/13 04:25:28;;;;;;;;;2.75;2.75;;;;;;;;4972461;28;8861;-82
2023/03/13 04:27:56;;;;;;;;;4.00;3.00;;;;;;;;4972781;28;8885;-84
2023/03/13 04:30:24;;;;;;;;;3.75;3.75;;;;;;;;4978825;28;8853;-84
2023/03/13 04:32:52;;;;;;;;;2.00;2.00;;;;;;;;4973367;28;9649;-83
2023/03/13 04:35:20;;;;;;;;;3.50;1.50;;;;;;;;4976897;28;8892;-85
2023/03/13 04:37:48;;;;;;;;;2.75;2.75;;;;;;;;4971537;28;8877;-83
2023/03/13 04:40:17;;;;;;;;;3.25;2.00;;;;;;;;4976680;28;8873;-83
2023/03/13 04:42:46;;;;;;;;;3.75;3.00;;;;;;;;4972389;28;8895;-84
2023/03/13 04:45:15;;;;;;;;;3.25;3.25;;;;;;;;4975316;28;9648;-83
2023/03/13 04:47:43;;;;;;;;;2.75;2.75;;;;;;;;4972122;28;9008;-83
2023/03/13 04:50:11;;;;;;;;;5.00;3.50;;;;;;;;4958954;28;8873;-84
2023/03/13 04:52:39;;;;;;;;;2.75;2.75;;;;;;;;4973655;28;8865;-84
2023/03/13 04:55:07;;;;;;;;;2.00;2.00;;;;;;;;4978177;28;8857;-84
2023/03/13 04:57:35;;;;;;;;;4.75;3.00;;;;;;;;4972709;28;8865;-84
2023/03/13 05:00:06;;;;;;;;;3.50;2.25;;;;;;;;4972776;28;8906;-85
2023/03/13 05:02:34;;;;;;;;;1.50;1.50;;;;;;;;4974872;28;8868;-84
2023/03/13 05:05:02;;;;;;;;;4.00;4.00;;;;;;;;4971977;28;8905;-84
2023/03/13 05:07:29;;;;;;;;;3.25;3.25;;;;;;;;4974686;28;8885;-83
2023/03/13 05:09:57;;;;;;;;;4.50;4.00;;;;;;;;4972722;28;8865;-84
2023/03/13 05:12:25;;;;;;;;;4.75;4.75;;;;;;;;4978363;28;8869;-84
2023/03/13 05:14:52;;;;;;;;;4.00;4.00;;;;;;;;4974533;28;8881;-83
2023/03/13 05:17:21;;;;;;;;;4.25;4.25;;;;;;;;4977613;28;8955;-84
2023/03/13 05:19:49;;;;;;;;;4.50;3.25;;;;;;;;4978929;28;8873;-84
2023/03/13 05:22:17;;;;;;;;;4.25;3.00;;;;;;;;4970129;28;9013;-84
2023/03/13 05:24:44;;;;;;;;;3.00;3.00;;;;;;;;4974884;28;8857;-83
2023/03/13 05:27:12;;;;;;;;;4.00;4.00;;;;;;;;4958119;28;8900;-84
2023/03/13 05:29:39;;;;;;;;;4.25;4.25;;;;;;;;4979380;28;9584;-83
2023/03/13 05:32:07;;;;;;;;;4.00;4.00;;;;;;;;4976989;28;8857;-85
2023/03/13 05:34:36;;;;;;;;;3.00;3.00;;;;;;;;4977496;28;8959;-84
2023/03/13 05:37:04;;;;;;;;;7.50;5.00;;;;;;;;4976816;28;8863;-85
2023/03/13 05:39:31;;;;;;;;;4.50;4.50;;;;;;;;4978752;28;9617;-82
2023/03/13 05:41:59;;;;;;;;;5.75;5.75;;;;;;;;4978230;28;8879;-83
2023/03/13 05:44:27;;;;;;;;;2.50;2.50;;;;;;;;4977578;28;8933;-82
2023/03/13 05:46:56;;;;;;;;;6.00;4.00;;;;;;;;4978761;28;8923;-84
2023/03/13 05:49:23;;;;;;;;;7.75;3.75;;;;;;;;4977219;28;8861;-78
2023/03/13 05:51:52;;;;;;;;;3.75;3.75;;;;;;;;4982098;28;9640;-82
2023/03/13 05:54:20;;;;;;;;;5.75;4.00;;;;;;;;4988014;28;9667;-77
2023/03/13 05:56:49;;;;;;;;;4.75;4.75;;;;;;;;4992174;28;8846;-78
2023/03/13 05:59:16;;;;;;;;;4.00;4.00;;;;;;;;4978929;28;8862;-77
2023/03/13 06:01:44;;;;;;;;;3.50;3.50;;;;;;;;4982501;28;8884;-77
2023/03/13 06:04:12;;;;;;;;;5.25;5.00;;;;;;;;4982536;28;8885;-75
2023/03/13 06:06:39;;;;;;;;;7.50;5.00;;;;;;;;4959485;28;8853;-76
2023/03/13 06:09:10;;;;;;;;;4.00;4.00;;;;;;;;4978180;28;8873;-79
2023/03/13 06:11:37;;;;;;;;;2.25;2.25;;;;;;;;4976203;28;8887;-73
2023/03/13 06:14:05;;;;;;;;;4.75;3.25;;;;;;;;4981328;28;8849;-75
2023/03/13 06:16:33;;;;;;;;;3.67;3.67;;;;;;;;4977258;28;8892;-76
2023/03/13 06:19:01;;;;;;;;;4.00;4.00;;;;;;;;4975575;28;8865;-80
2023/03/13 06:21:28;;;;;;;;;4.50;4.50;;;;;;;;4977716;28;8882;-80
2023/03/13 06:23:56;;;;;;;;;3.00;3.00;;;;;;;;4974497;28;8891;-79
2023/03/13 06:26:25;;;;;;;;;5.25;4.25;;;;;;;;4974774;28;8853;-81
2023/03/13 06:28:53;;;;;;;;;6.75;5.00;;;;;;;;4978603;28;8877;-75
2023/03/13 06:31:21;;;;;;;;;5.75;4.25;;;;;;;;4975502;28;9004;-76
2023/03/13 06:33:49;;;;;;;;;7.50;6.75;;;;;;;;4977679;28;8919;-76
2023/03/13 06:36:16;;;;;;;;;7.00;5.75;;;;;;;;4979076;28;8861;-77
2023/03/13 06:38:43;;;;;;;;;5.00;5.00;;;;;;;;4974317;28;8899;-75
2023/03/13 06:41:11;;;;;;;;;5.75;5.00;;;;;;;;4976868;28;8877;-76
2023/03/13 06:43:40;;;;;;;;;4.75;4.75;;;;;;;;4976639;28;8884;-76
2023/03/13 06:46:11;;;;;;;;;6.25;6.25;;;;;;;;4979484;28;8877;-76
2023/03/13 06:48:38;;;;;;;;;8.25;5.75;;;;;;;;4975931;28;8876;-75
2023/03/13 06:51:07;;;;;;;;;6.50;6.50;;;;;;;;4978939;28;8857;-77
2023/03/13 06:53:36;;;;;;;;;6.00;5.50;;;;;;;;4980679;28;8876;-75
2023/03/13 06:56:03;;;;;;;;;6.00;6.00;;;;;;;;4973436;28;8865;-78
2023/03/13 06:58:31;;;;;;;;;5.50;4.75;;;;;;;;4971241;28;8865;-76
2023/03/13 07:01:00;;;;;;;;;6.25;5.25;;;;;;;;4974329;28;8911;-76
2023/03/13 07:03:28;;;;;;;;;5.00;5.00;;;;;;;;4976737;28;8874;-82
2023/03/13 07:05:57;;;;;;;;;5.75;5.75;;;;;;;;4961163;28;8897;-79
2023/03/13 07:08:25;;;;;;;;;6.75;6.75;;;;;;;;4973140;28;8890;-82
2023/03/13 07:10:53;;;;;;;;;6.50;6.50;;;;;;;;4975006;28;8904;-77
2023/03/13 07:13:21;;;;;;;;;7.00;5.75;;;;;;;;4976767;28;8881;-76
2023/03/13 07:15:51;;;;;;;;;6.50;6.25;;;;;;;;4973329;28;8873;-75
2023/03/13 07:18:21;;;;;;;;;5.75;5.75;;;;;;;;4975343;28;8892;-79
2023/03/13 07:20:54;;;;;;;;;5.50;3.50;;;;;;;;4974502;28;8872;-79
2023/03/13 07:23:24;;;;;;;;;5.00;5.00;;;;;;;;4972854;28;9759;-77
2023/03/13 07:25:56;;;;;;;;;6.75;5.25;;;;;;;;4976196;28;8989;-77
2023/03/13 07:28:25;;;;;;;;;10.25;6.00;;;;;;;;4972274;28;8869;-76
2023/03/13 07:30:52;;;;;;;;;5.00;5.00;;;;;;;;4972946;28;8841;-76
2023/03/13 07:33:24;;;;;;;;;6.50;5.00;;;;;;;;4973782;28;8887;-77
2023/03/13 07:35:52;;;;;;;;;6.00;6.00;;;;;;;;4975799;28;8874;-81
2023/03/13 07:38:21;;;;;;;;;5.00;5.00;;;;;;;;4989912;28;8861;-81
2023/03/13 07:40:50;;;;;;;;;2.50;2.50;;;;;;;;4968248;28;8841;-82
2023/03/13 07:43:18;;;;;;;;;5.50;5.50;;;;;;;;4970946;28;8868;-81
2023/03/13 07:45:56;;;;;;;;;7.00;4.75;;;;;;;;4972634;28;9635;-81
2023/03/13 07:48:28;;;;;;;;;7.00;5.75;;;;;;;;4971787;28;8873;-83
2023/03/13 07:50:56;;;;;;;;;4.00;4.00;;;;;;;;4974162;28;8885;-81
2023/03/13 07:53:24;;;;;;;;;4.75;4.75;;;;;;;;4971548;28;8869;-81
2023/03/13 07:55:56;;;;;;;;;4.50;4.50;;;;;;;;4969245;28;9678;-81
2023/03/13 07:58:27;;;;;;;;;3.50;3.50;;;;;;;;4970646;28;8862;-81
2023/03/13 08:00:57;;;;;;;;;7.50;4.25;;;;;;;;4975075;28;8829;-82
2023/03/13 08:03:26;;;;;;;;;2.00;2.00;;;;;;;;4974460;28;8873;-82
2023/03/13 08:06:00;;;;;;;;;5.00;5.00;;;;;;;;4978301;28;8884;-81
2023/03/13 08:08:28;;;;;;;;;5.00;5.00;;;;;;;;4972128;28;9031;-81
2023/03/13 08:11:01;;;;;;;;;4.00;4.00;;;;;;;;4974863;28;8999;-82
2023/03/13 08:13:28;;;;;;;;;3.00;3.00;;;;;;;;4965237;28;8951;-81
2023/03/13 08:16:07;;;;;;;;;4.50;4.50;;;;;;;;4973359;28;8870;-79
2023/03/13 08:18:37;;;;;;;;;4.25;3.00;;;;;;;;4975226;28;8891;-81
2023/03/13 08:21:08;;;;;;;;;4.00;4.00;;;;;;;;4973715;28;8869;-82
2023/03/13 08:23:36;;;;;;;;;6.00;4.00;;;;;;;;4974904;28;8884;-85
2023/03/13 08:26:06;;;;;;;;;5.50;4.25;;;;;;;;4973363;28;8885;-82
2023/03/13 08:28:34;;;;;;;;;4.00;4.00;;;;;;;;4969762;28;9597;-82
2023/03/13 08:31:09;;;;;;;;;5.00;5.00;;;;;;;;4974506;28;8865;-83
2023/03/13 08:33:39;;;;;;;;;5.50;4.00;;;;;;;;4972226;28;8908;-82
2023/03/13 08:36:12;;;;;;;;;8.50;7.75;;;;;;;;4969940;28;8908;-84
2023/03/13 08:38:43;;;;;;;;;4.00;4.00;;;;;;;;4975613;28;9020;-83
2023/03/13 08:41:11;;;;;;;;;5.00;5.00;;;;;;;;4970276;28;8836;-83
2023/03/13 08:43:38;;;;;;;;;6.75;5.75;;;;;;;;4967910;28;8894;-82
2023/03/13 08:46:06;;;;;;;;;7.25;7.00;;;;;;;;4976463;28;8931;-82
2023/03/13 08:48:34;;;;;;;;;4.00;4.00;;;;;;;;4968841;28;8899;-78
2023/03/13 08:51:06;;;;;;;;;6.25;5.75;;;;;;;;4971212;28;8938;-84
2023/03/13 08:53:34;;;;;;;;;5.50;5.50;;;;;;;;4975561;28;8862;-80
2023/03/13 08:56:03;;;;;;;;;9.00;4.50;;;;;;;;4971573;28;9060;-75
2023/03/13 09:20:24;;;;;;;;;6.67;6.00;;;;;;;;5025160;27;1462373;-78
2023/03/13 09:22:52;;;;;;;;;6.00;6.00;;;;;;;;5055742;28;8847;-79
2023/03/13 09:25:20;;;;;;;;;6.25;6.25;;;;;;;;5036109;28;9770;-81
2023/03/13 09:27:48;;;;;;;;;6.25;6.25;;;;;;;;5072300;28;8846;-84
2023/03/13 09:30:17;;;;;;;;;5.75;4.25;;;;;;;;5068249;28;8830;-85
2023/03/13 09:32:45;;;;;;;;;8.25;6.25;;;;;;;;5051937;28;8844;-82
2023/03/13 09:35:12;;;;;;;;;5.00;5.00;;;;;;;;5072755;28;8846;-76
2023/03/13 09:37:41;;;;;;;;;6.50;5.75;;;;;;;;5071312;28;8863;-77
2023/03/13 09:40:13;;;;;;;;;6.75;6.00;;;;;;;;5072499;28;8854;-79
2023/03/13 09:42:46;;;;;;;;;5.00;3.25;;;;;;;;5071760;28;8853;-80
2023/03/13 09:45:18;;;;;;;;;3.00;3.00;;;;;;;;5068494;28;8884;-80
2023/03/13 09:47:48;;;;;;;;;5.75;5.75;;;;;;;;5069958;28;8875;-79
2023/03/13 09:50:21;;;;;;;;;5.25;5.25;;;;;;;;5065494;28;8871;-77
2023/03/13 09:52:53;;;;;;;;;5.00;3.00;;;;;;;;5065021;28;8896;-81
2023/03/13 09:55:23;;;;;;;;;6.00;4.50;;;;;;;;5069839;28;8856;-80
2023/03/13 09:57:54;;;;;;;;;3.00;3.00;;;;;;;;5068331;28;10102;-78
2023/03/13 10:00:26;;;;;;;;;3.00;3.00;;;;;;;;5065967;28;8897;-78
2023/03/13 10:02:58;;;;;;;;;4.50;4.00;;;;;;;;5066101;28;9007;-77
2023/03/13 10:05:27;;;;;;;;;3.00;3.00;;;;;;;;5067487;28;8852;-78
2023/03/13 10:08:02;;;;;;;;;3.00;2.75;;;;;;;;5055440;28;8899;-77
2023/03/13 10:10:38;;;;;;;;;3.00;3.00;;;;;;;;5050304;28;8868;-78
2023/03/13 10:13:16;;;;;;;;;3.25;2.00;;;;;;;;5048548;28;9001;-79
2023/03/13 10:15:50;;;;;;;;;1.75;1.75;;;;;;;;5048193;28;8895;-77
2023/03/13 10:18:20;;;;;;;;;1.00;1.00;;;;;;;;5067942;28;8844;-77
2023/03/13 10:20:51;;;;;;;;;1.50;1.50;;;;;;;;5067409;28;8859;-77
2023/03/13 10:23:27;;;;;;;;;1.75;1.75;;;;;;;;5068220;28;8863;-77
2023/03/13 10:25:55;;;;;;;;;3.00;1.25;;;;;;;;5047509;28;8844;-78
2023/03/13 10:28:22;;;;;;;;;1.25;1.25;;;;;;;;5048528;28;8843;-77
2023/03/13 10:30:53;;;;;;;;;1.00;1.00;;;;;;;;5035547;28;8977;-77
2023/03/13 10:33:26;;;;;;;;;2.75;1.00;;;;;;;;5054635;28;9618;-78
2023/03/13 10:36:03;;;;;;;;;0.75;0.75;;;;;;;;5051007;28;8857;-78
2023/03/13 10:38:45;;;;;;;;;3.00;1.25;;;;;;;;5052762;28;8872;-79
2023/03/13 10:41:27;;;;;;;;;1.00;1.00;;;;;;;;5037090;28;8881;-76
2023/03/13 10:44:00;;;;;;;;;1.00;1.00;;;;;;;;5040861;28;8951;-75
2023/03/13 10:46:30;;;;;;;;;1.50;1.25;;;;;;;;5038755;28;9786;-77
2023/03/13 10:49:00;;;;;;;;;1.00;1.00;;;;;;;;5044650;28;9259;-78
2023/03/13 10:51:35;;;;;;;;;1.75;1.75;;;;;;;;5059240;28;8844;-78
2023/03/13 10:54:16;;;;;;;;;2.50;1.50;;;;;;;;5063481;28;8844;-77
2023/03/13 10:56:43;;;;;;;;;2.00;1.00;;;;;;;;5018172;28;8975;-77
2023/03/13 10:59:25;;;;;;;;;1.00;1.00;;;;;;;;5054497;28;8878;-76
2023/03/13 11:01:53;;;;;;;;;1.00;1.00;;;;;;;;5046618;28;8879;-78
2023/03/13 11:04:28;;;;;;;;;0.00;0.00;;;;;;;;5053178;28;8857;-79
2023/03/13 11:07:02;;;;;;;;;1.00;1.00;;;;;;;;5050975;28;9676;-78
2023/03/13 11:09:31;;;;;;;;;2.00;2.00;;;;;;;;5053523;28;8881;-78
2023/03/13 11:12:05;;;;;;;;;2.00;2.00;;;;;;;;5052689;28;8866;-81
2023/03/13 11:14:34;;;;;;;;;0.75;0.75;;;;;;;;5053142;28;8874;-81
2023/03/13 11:17:10;;;;;;;;;2.50;2.50;;;;;;;;5052972;28;8872;-80
2023/03/13 11:19:51;;;;;;;;;2.00;2.00;;;;;;;;5055199;28;9653;-76
2023/03/13 11:22:41;;;;;;;;;2.25;1.00;;;;;;;;5051908;28;8870;-79
2023/03/13 11:25:30;;;;;;;;;1.25;0.50;;;;;;;;5055182;28;8825;-80
2023/03/13 11:28:13;;;;;;;;;1.75;1.00;;;;;;;;5052728;28;8864;-77
2023/03/13 11:31:10;;;;;;;;;1.00;1.00;;;;;;;;5037089;28;9271;-79
2023/03/13 11:33:56;;;;;;;;;3.00;1.00;;;;;;;;5056460;28;8852;-75
2023/03/13 11:36:32;;;;;;;;;4.75;2.00;;;;;;;;5053279;28;8839;-71
2023/03/13 11:39:07;;;;;;;;;1.25;1.25;;;;;;;;5036621;28;8849;-75
2023/03/13 11:47:43;;;;;;;;;2.00;2.00;;;;;;;;5089639;22;9581;-74
2023/03/13 11:50:24;;;;;;;;;3.00;1.00;;;;;;;;5036009;28;9642;-74
2023/03/13 11:53:12;;;;;;;;;1.75;1.75;;;;;;;;5038130;28;9186;-73
2023/03/13 11:55:50;;;;;;;;;1.25;1.25;;;;;;;;5058284;22;8872;-73
2023/03/13 11:58:26;;;;;;;;;1.50;1.50;;;;;;;;5030825;28;9636;-74
2023/03/13 12:01:00;;;;;;;;;4.25;1.25;;;;;;;;5029848;28;8973;-74
2023/03/13 12:03:36;;;;;;;;;1.00;1.00;;;;;;;;5031324;28;8852;-74
2023/03/13 12:06:05;;;;;;;;;2.00;1.00;;;;;;;;5032006;28;8867;-74
2023/03/13 12:08:38;;;;;;;;;1.00;1.00;;;;;;;;5032185;28;9021;-74
2023/03/13 12:13:39;;;;;;;;;1.00;1.00;;;;;;;;5031998;23;8886;-74
2023/03/13 12:16:12;;;;;;;;;1.00;1.00;;;;;;;;5071959;22;8899;-74
2023/03/13 12:18:41;;;;;;;;;1.00;1.00;;;;;;;;5049562;28;8994;-74
2023/03/13 12:21:16;;;;;;;;;0.00;0.00;;;;;;;;5040753;28;8859;-74
2023/03/13 12:23:49;;;;;;;;;2.00;0.50;;;;;;;;5046678;23;8837;-74
2023/03/13 12:26:19;;;;;;;;;1.00;1.00;;;;;;;;5071572;22;9672;-74
2023/03/13 12:28:52;;;;;;;;;1.00;1.00;;;;;;;;5044887;28;8903;-74
2023/03/13 12:31:25;;;;;;;;;1.00;1.00;;;;;;;;5112466;22;9718;-74
2023/03/13 12:33:58;;;;;;;;;1.75;1.75;;;;;;;;5049654;28;8891;-74
2023/03/13 12:36:31;;;;;;;;;2.25;2.25;;;;;;;;5042925;28;8841;-74
2023/03/13 12:39:07;;;;;;;;;2.75;1.00;;;;;;;;5046251;28;8870;-73
2023/03/13 12:41:40;;;;;;;;;0.00;0.00;;;;;;;;5044565;28;8857;-74
2023/03/13 12:44:10;;;;;;;;;1.00;1.00;;;;;;;;5059638;23;8829;-74
2023/03/13 12:46:41;;;;;;;;;1.00;1.00;;;;;;;;5058749;22;8848;-74
2023/03/13 12:52:03;;;;;;;;;1.75;1.75;;;;;;;;5064271;22;9215;-74
2023/03/13 12:54:40;;;;;;;;;2.00;1.00;;;;;;;;5045801;22;9038;-75
2023/03/13 12:59:45;;;;;;;;;1.00;1.00;;;;;;;;5039291;22;8845;-75
2023/03/13 13:02:19;;;;;;;;;1.50;1.50;;;;;;;;5089383;23;8921;-75
2023/03/13 13:04:49;;;;;;;;;0.00;0.00;;;;;;;;5033880;28;8853;-74
2023/03/13 13:07:25;;;;;;;;;3.25;1.75;;;;;;;;5022658;28;8942;-76
2023/03/13 13:10:15;;;;;;;;;0.75;0.75;;;;;;;;5034665;28;8852;-75
2023/03/13 13:12:44;;;;;;;;;0.00;0.00;;;;;;;;5091082;22;9780;-75
2023/03/13 13:15:17;;;;;;;;;2.00;2.00;;;;;;;;5029867;23;9619;-77
2023/03/13 13:18:05;;;;;;;;;0.25;0.25;;;;;;;;5022556;28;8844;-77
2023/03/13 13:20:40;;;;;;;;;2.00;1.00;;;;;;;;5018629;28;8882;-76
2023/03/13 13:23:25;;;;;;;;;1.00;1.00;;;;;;;;5019033;28;8864;-77
2023/03/13 13:25:53;;;;;;;;;1.25;1.25;;;;;;;;5016878;28;8930;-78
2023/03/13 13:28:36;;;;;;;;;1.50;1.50;;;;;;;;5023766;28;8986;-78
2023/03/13 13:31:42;;;;;;;;;1.00;1.00;;;;;;;;5018688;28;8890;-77
2023/03/13 13:34:10;;;;;;;;;0.50;0.50;;;;;;;;5022591;28;8864;-77
2023/03/13 13:36:44;;;;;;;;;1.00;1.00;;;;;;;;5022224;28;8852;-78
2023/03/13 13:39:33;;;;;;;;;2.50;1.00;;;;;;;;5020184;28;8978;-76
2023/03/13 13:42:02;;;;;;;;;1.00;1.00;;;;;;;;5023575;28;9696;-78
2023/03/13 13:44:30;;;;;;;;;0.75;0.75;;;;;;;;5022358;28;9003;-78
2023/03/13 13:47:00;;;;;;;;;1.00;1.00;;;;;;;;5020198;28;8845;-81
2023/03/13 13:49:36;;;;;;;;;2.25;1.25;;;;;;;;5020215;28;8856;-78
2023/03/13 13:52:38;;;;;;;;;3.50;1.00;;;;;;;;5022573;28;8880;-78
2023/03/13 13:55:41;;;;;;;;;3.00;1.25;;;;;;;;5023221;28;8876;-78
2023/03/13 13:58:13;;;;;;;;;2.00;2.00;;;;;;;;5024402;28;8856;-78
2023/03/13 14:00:43;;;;;;;;;0.75;0.75;;;;;;;;5021836;28;8872;-78
2023/03/13 14:03:22;;;;;;;;;2.75;1.25;;;;;;;;5023363;28;8887;-78
2023/03/13 14:05:55;;;;;;;;;1.25;1.00;;;;;;;;5022155;28;8868;-78
2023/03/13 14:08:28;;;;;;;;;1.00;0.25;;;;;;;;5022310;28;8876;-77
2023/03/13 14:11:09;;;;;;;;;5.25;1.00;;;;;;;;5019329;28;8863;-78
2023/03/13 14:13:37;;;;;;;;;2.00;2.00;;;;;;;;5017902;28;8876;-77
2023/03/13 14:16:22;;;;;;;;;1.00;1.00;;;;;;;;5022693;28;8882;-77
2023/03/13 14:18:50;;;;;;;;;1.00;1.00;;;;;;;;5021200;28;8908;-78
2023/03/13 14:21:22;;;;;;;;;1.00;1.00;;;;;;;;5023552;28;8903;-76
2023/03/13 14:23:50;;;;;;;;;2.50;1.50;;;;;;;;5022356;28;8890;-77
2023/03/13 14:26:22;;;;;;;;;1.25;1.00;;;;;;;;5023027;28;8934;-77
2023/03/13 14:28:52;;;;;;;;;3.25;1.00;;;;;;;;5005059;28;8977;-77
2023/03/13 14:31:25;;;;;;;;;1.00;1.00;;;;;;;;5025193;28;8891;-78
2023/03/13 14:33:52;;;;;;;;;4.00;0.75;;;;;;;;5025045;28;8875;-78
2023/03/13 14:36:21;;;;;;;;;1.25;1.25;;;;;;;;5022588;28;8876;-77
2023/03/13 14:38:54;;;;;;;;;1.25;1.25;;;;;;;;5025359;28;8860;-76
2023/03/13 14:41:31;;;;;;;;;1.00;1.00;;;;;;;;5022862;28;8853;-76
2023/03/13 14:44:04;;;;;;;;;1.25;1.25;;;;;;;;5021502;28;8974;-77
2023/03/13 14:46:34;;;;;;;;;1.00;1.00;;;;;;;;5023422;28;8900;-77
2023/03/13 14:49:13;;;;;;;;;0.00;0.00;;;;;;;;5026966;28;8832;-77
2023/03/13 14:51:41;;;;;;;;;0.75;0.75;;;;;;;;5021828;28;8863;-78
2023/03/13 14:54:26;;;;;;;;;1.25;1.25;;;;;;;;5019873;28;8872;-78
2023/03/13 14:57:06;;;;;;;;;2.00;2.00;;;;;;;;5023602;28;8835;-77
2023/03/13 14:59:34;;;;;;;;;1.00;1.00;;;;;;;;5022031;28;8844;-78
2023/03/13 15:02:03;;;;;;;;;1.00;1.00;;;;;;;;5019406;28;8856;-77
2023/03/13 15:04:54;;;;;;;;;1.75;1.00;;;;;;;;5017449;28;8852;-77
2023/03/13 15:07:24;;;;;;;;;2.00;2.00;;;;;;;;5017719;28;9725;-78
2023/03/13 15:09:53;;;;;;;;;4.25;2.50;;;;;;;;5017298;28;8875;-82
2023/03/13 15:12:25;;;;;;;;;3.75;2.25;;;;;;;;5019485;28;8884;-81
2023/03/13 15:14:52;;;;;;;;;4.25;2.00;;;;;;;;5018885;28;8938;-79
2023/03/13 15:17:24;;;;;;;;;4.25;1.50;;;;;;;;5022042;28;8854;-79
2023/03/13 15:19:55;;;;;;;;;3.00;3.00;;;;;;;;5017760;28;8856;-75
2023/03/13 15:22:27;;;;;;;;;3.00;2.00;;;;;;;;5020063;28;8809;-79
2023/03/13 15:24:55;;;;;;;;;0.75;0.75;;;;;;;;5021172;28;8869;-78
2023/03/13 15:27:26;;;;;;;;;4.00;2.25;;;;;;;;5023715;28;8860;-77
2023/03/13 15:29:53;;;;;;;;;2.00;2.00;;;;;;;;5018477;28;8884;-79
2023/03/13 15:32:27;;;;;;;;;2.25;2.00;;;;;;;;5018477;28;8889;-78
2023/03/13 15:34:57;;;;;;;;;2.50;1.75;;;;;;;;5014804;28;8863;-78
2023/03/13 15:37:25;;;;;;;;;0.00;0.00;;;;;;;;5022507;28;8930;-77
2023/03/13 15:39:53;;;;;;;;;1.50;1.50;;;;;;;;5017792;28;8864;-77
2023/03/13 15:42:36;;;;;;;;;1.75;1.75;;;;;;;;5018130;28;8938;-84
2023/03/13 15:45:08;;;;;;;;;1.00;1.00;;;;;;;;5020757;28;9493;-77
2023/03/13 15:47:39;;;;;;;;;3.50;2.00;;;;;;;;5021176;28;8886;-84
2023/03/13 15:50:10;;;;;;;;;1.00;1.00;;;;;;;;5019439;28;8860;-79
2023/03/13 15:52:38;;;;;;;;;1.00;1.00;;;;;;;;5018648;28;8992;-76
2023/03/13 15:55:07;;;;;;;;;1.00;1.00;;;;;;;;5016226;28;8864;-78